Time,TemperatureF,DewpointF,PressureIn,WindDirection,WindDirectionDegrees,WindSpeedMPH,WindSpeedGustMPH,Humidity,HourlyPrecipIn,Conditions,Clouds,dailyrainin,SoftwareType,DateUTC
2013-04-29 05:50:00,55.4,55.1,29.88,SE,135,2.0,-999.0,99,-99.99,,,0.02,Acu-Link.com,2013-04-29 09:50:00,
2013-04-29 06:05:00,55.4,55.1,29.89,ESE,112,1.6,-999.0,99,-99.99,,,0.02,Acu-Link.com,2013-04-29 10:05:00,
2013-04-29 06:20:00,55.4,55.1,29.89,SW,225,0.0,-999.0,99,-99.99,,,0.02,Acu-Link.com,2013-04-29 10:20:00,
2013-04-29 06:35:00,55.4,55.1,29.89,ESE,112,0.0,-999.0,99,-99.99,,,0.02,Acu-Link.com,2013-04-29 10:35:00,
2013-04-29 06:50:00,55.4,55.1,29.90,WSW,247,0.0,-999.0,99,-99.99,,,0.02,Acu-Link.com,2013-04-29 10:50:00,
2013-04-29 07:05:00,55.4,55.1,29.90,SW,225,0.0,-999.0,99,-99.99,,,0.02,Acu-Link.com,2013-04-29 11:05:00,
2013-04-29 07:20:00,55.4,55.1,29.91,East,90,0.0,-999.0,99,-99.99,,,0.02,Acu-Link.com,2013-04-29 11:20:00,
2013-04-29 07:35:00,55.4,55.1,29.91,East,90,0.0,-999.0,99,-99.99,,,0.02,Acu-Link.com,2013-04-29 11:35:00,
2013-04-29 07:50:00,55.4,55.1,29.92,ESE,112,0.0,-999.0,99,-99.99,,,0.04,Acu-Link.com,2013-04-29 11:50:00,
2013-04-29 08:06:00,55.4,55.1,29.92,NE,45,0.0,-999.0,99,-99.99,,,0.06,Acu-Link.com,2013-04-29 12:06:00,
2013-04-29 08:21:00,55.4,55.1,29.92,NNE,22,0.0,-999.0,99,-99.99,,,0.07,Acu-Link.com,2013-04-29 12:21:00,
2013-04-29 08:36:00,55.4,55.1,29.93,NNW,337,0.0,-999.0,99,-99.99,,,0.09,Acu-Link.com,2013-04-29 12:36:00,
2013-04-29 08:51:00,57.2,56.9,29.93,WSW,247,0.0,-999.0,99,-99.99,,,0.10,Acu-Link.com,2013-04-29 12:51:00,
2013-04-29 09:06:00,59.0,58.7,29.93,NW,315,0.0,-999.0,99,-99.99,,,0.10,Acu-Link.com,2013-04-29 13:06:00,
2013-04-29 09:21:00,62.6,59.3,29.93,West,270,1.1,-999.0,89,-99.99,,,0.10,Acu-Link.com,2013-04-29 13:21:00,
2013-04-29 09:36:00,62.6,57.7,29.93,SSW,202,2.0,-999.0,84,-99.99,,,0.10,Acu-Link.com,2013-04-29 13:36:00,
2013-04-29 09:51:00,60.8,55.3,29.93,WSW,247,2.0,-999.0,82,-99.99,,,0.10,Acu-Link.com,2013-04-29 13:51:00,
2013-04-29 10:06:00,60.8,56.6,29.94,West,270,2.7,-999.0,86,-99.99,,,0.10,Acu-Link.com,2013-04-29 14:06:00,
2013-04-29 10:21:00,60.8,56.3,29.94,WNW,292,2.7,-999.0,85,-99.99,,,0.10,Acu-Link.com,2013-04-29 14:21:00,
2013-04-29 10:36:00,60.8,55.9,29.94,WNW,292,1.6,-999.0,84,-99.99,,,0.10,Acu-Link.com,2013-04-29 14:36:00,
2013-04-29 10:51:00,62.6,56.3,29.94,WNW,292,4.0,-999.0,80,-99.99,,,0.10,Acu-Link.com,2013-04-29 14:51:00,
2013-04-29 11:06:00,62.6,56.0,29.94,SW,225,1.1,-999.0,79,-99.99,,,0.10,Acu-Link.com,2013-04-29 15:06:00,
2013-04-29 11:22:00,60.8,55.3,29.95,SW,225,0.0,-999.0,82,-99.99,,,0.10,Acu-Link.com,2013-04-29 15:22:00,
2013-04-29 11:37:00,62.6,54.9,29.95,SSW,202,2.0,-999.0,76,-99.99,,,0.10,Acu-Link.com,2013-04-29 15:37:00,
2013-04-29 11:52:00,62.6,54.6,29.94,SSW,202,1.1,-999.0,75,-99.99,,,0.10,Acu-Link.com,2013-04-29 15:52:00,
2013-04-29 12:07:00,64.4,54.0,29.95,WNW,292,4.7,-999.0,69,-99.99,,,0.10,Acu-Link.com,2013-04-29 16:07:00,
2013-04-29 12:22:00,62.6,54.6,29.95,NNE,22,0.0,-999.0,75,-99.99,,,0.10,Acu-Link.com,2013-04-29 16:22:00,
2013-04-29 12:37:00,62.6,53.8,29.95,SSW,202,2.7,-999.0,73,-99.99,,,0.10,Acu-Link.com,2013-04-29 16:37:00,
2013-04-29 12:52:00,64.4,54.8,29.94,West,270,5.1,-999.0,71,-99.99,,,0.10,Acu-Link.com,2013-04-29 16:52:00,
2013-04-29 13:07:00,64.4,56.7,29.94,NW,315,6.7,-999.0,76,-99.99,,,0.10,Acu-Link.com,2013-04-29 17:07:00,
2013-04-29 13:22:00,64.4,55.9,29.94,West,270,4.7,-999.0,74,-99.99,,,0.87,Acu-Link.com,2013-04-29 17:22:00,
2013-04-29 13:38:00,62.6,54.6,29.95,NNW,337,3.6,-999.0,75,-99.99,,,0.87,Acu-Link.com,2013-04-29 17:38:00,
2013-04-29 13:53:00,64.4,55.6,29.95,NNE,22,3.6,-999.0,73,-99.99,,,0.87,Acu-Link.com,2013-04-29 17:53:00,
2013-04-29 14:08:00,64.4,55.6,29.95,West,270,2.0,-999.0,73,-99.99,,,0.87,Acu-Link.com,2013-04-29 18:08:00,
2013-04-29 14:23:00,64.4,54.8,29.95,WNW,292,1.6,-999.0,71,-99.99,,,0.87,Acu-Link.com,2013-04-29 18:23:00,
2013-04-29 14:38:00,68.0,57.8,29.94,SW,225,1.6,-999.0,70,-99.99,,,0.87,Acu-Link.com,2013-04-29 18:38:00,
2013-04-29 14:53:00,66.2,55.7,29.94,WSW,247,4.0,-999.0,69,-99.99,,,0.87,Acu-Link.com,2013-04-29 18:53:00,
2013-04-29 15:08:00,64.4,53.2,29.94,WNW,292,4.0,-999.0,67,-99.99,,,0.87,Acu-Link.com,2013-04-29 19:08:00,
2013-04-29 15:23:00,64.4,54.0,29.94,NE,45,1.1,-999.0,69,-99.99,,,0.87,Acu-Link.com,2013-04-29 19:23:00,
2013-04-29 15:38:00,64.4,53.6,29.94,SW,225,5.1,-999.0,68,-99.99,,,0.87,Acu-Link.com,2013-04-29 19:38:00,
2013-04-29 15:53:00,66.2,55.3,29.93,WNW,292,6.3,-999.0,68,-99.99,,,0.87,Acu-Link.com,2013-04-29 19:53:00,
2013-04-29 16:08:00,68.0,56.6,29.93,SSW,202,4.7,-999.0,67,-99.99,,,0.87,Acu-Link.com,2013-04-29 20:08:00,
2013-04-29 16:23:00,68.0,55.4,29.93,East,90,3.6,-999.0,64,-99.99,,,0.87,Acu-Link.com,2013-04-29 20:23:00,
2013-04-29 16:38:00,68.0,56.6,29.93,WNW,292,2.7,-999.0,67,-99.99,,,0.87,Acu-Link.com,2013-04-29 20:38:00,
2013-04-29 16:53:00,68.0,56.2,29.93,ESE,112,2.0,-999.0,66,-99.99,,,0.87,Acu-Link.com,2013-04-29 20:53:00,
2013-04-29 17:08:00,68.0,56.2,29.93,WNW,292,1.6,-999.0,66,-99.99,,,0.87,Acu-Link.com,2013-04-29 21:08:00,
2013-04-29 17:23:00,68.0,54.9,29.92,SW,225,1.6,-999.0,63,-99.99,,,0.87,Acu-Link.com,2013-04-29 21:23:00,
2013-04-29 17:38:00,69.8,56.2,29.93,WSW,247,2.0,-999.0,62,-99.99,,,0.87,Acu-Link.com,2013-04-29 21:38:00,
2013-04-29 17:54:00,69.8,56.6,29.93,ESE,112,2.0,-999.0,63,-99.99,,,0.87,Acu-Link.com,2013-04-29 21:54:00,
2013-04-29 18:09:00,68.0,54.0,29.94,WNW,292,0.0,-999.0,61,-99.99,,,0.87,Acu-Link.com,2013-04-29 22:09:00,
2013-04-29 18:24:00,68.0,54.5,29.94,WNW,292,2.7,-999.0,62,-99.99,,,0.87,Acu-Link.com,2013-04-29 22:24:00,
2013-04-29 18:39:00,68.0,56.2,29.94,SW,225,1.6,-999.0,66,-99.99,,,0.87,Acu-Link.com,2013-04-29 22:39:00,
2013-04-29 18:54:00,68.0,55.8,29.94,NW,315,0.0,-999.0,65,-99.99,,,0.87,Acu-Link.com,2013-04-29 22:54:00,
2013-04-29 19:09:00,66.2,53.7,29.94,West,270,2.0,-999.0,64,-99.99,,,0.87,Acu-Link.com,2013-04-29 23:09:00,
2013-04-29 19:24:00,66.2,54.1,29.94,WSW,247,0.0,-999.0,65,-99.99,,,0.87,Acu-Link.com,2013-04-29 23:24:00,
2013-04-29 19:39:00,66.2,54.5,29.94,NE,45,1.6,-999.0,66,-99.99,,,0.87,Acu-Link.com,2013-04-29 23:39:00,
2013-04-29 19:54:00,64.4,54.0,29.95,East,90,0.0,-999.0,69,-99.99,,,0.87,Acu-Link.com,2013-04-29 23:54:00,
2013-04-29 20:09:00,62.6,53.4,29.95,NW,315,0.0,-999.0,72,-99.99,,,0.87,Acu-Link.com,2013-04-30 00:09:00,
2013-04-29 20:25:00,60.8,52.8,29.95,East,90,0.0,-999.0,75,-99.99,,,0.87,Acu-Link.com,2013-04-30 00:25:00,
2013-04-29 20:40:00,59.0,51.8,29.95,East,90,0.0,-999.0,77,-99.99,,,0.87,Acu-Link.com,2013-04-30 00:40:00,
2013-04-29 20:55:00,59.0,52.1,29.95,ESE,112,0.0,-999.0,78,-99.99,,,0.87,Acu-Link.com,2013-04-30 00:55:00,
2013-04-29 21:10:00,55.4,49.3,29.96,ENE,67,0.0,-999.0,80,-99.99,,,0.87,Acu-Link.com,2013-04-30 01:10:00,
2013-04-29 21:25:00,55.4,50.0,29.97,East,90,0.0,-999.0,82,-99.99,,,0.87,Acu-Link.com,2013-04-30 01:25:00,
2013-04-29 21:40:00,55.4,50.6,29.97,East,90,0.0,-999.0,84,-99.99,,,0.87,Acu-Link.com,2013-04-30 01:40:00,
2013-04-29 21:56:00,55.4,51.6,29.98,ENE,67,0.0,-999.0,87,-99.99,,,0.87,Acu-Link.com,2013-04-30 01:56:00,
2013-04-29 22:11:00,53.6,49.8,29.98,NW,315,0.0,-999.0,87,-99.99,,,0.87,Acu-Link.com,2013-04-30 02:11:00,
2013-04-29 22:26:00,53.6,50.1,29.98,NE,45,0.0,-999.0,88,-99.99,,,0.87,Acu-Link.com,2013-04-30 02:26:00,
2013-04-29 22:41:00,53.6,50.7,29.98,NE,45,0.0,-999.0,90,-99.99,,,0.87,Acu-Link.com,2013-04-30 02:41:00,
2013-04-29 22:57:00,53.6,51.0,29.98,East,90,0.0,-999.0,91,-99.99,,,0.87,Acu-Link.com,2013-04-30 02:57:00,
2013-04-29 23:12:00,53.6,51.3,29.98,East,90,0.0,-999.0,92,-99.99,,,0.87,Acu-Link.com,2013-04-30 03:12:00,
2013-04-29 23:27:00,51.8,49.8,29.98,ENE,67,0.0,-999.0,93,-99.99,,,0.87,Acu-Link.com,2013-04-30 03:27:00,
2013-04-29 23:42:00,51.8,50.1,29.98,East,90,0.0,-999.0,94,-99.99,,,0.87,Acu-Link.com,2013-04-30 03:42:00,
2013-04-29 23:58:00,51.8,50.4,29.99,East,90,0.0,-999.0,95,-99.99,,,0.87,Acu-Link.com,2013-04-30 03:58:00,